createdAt,value
2019-03-11T00:02:02.920Z,3.17
2019-03-11T00:04:32.840Z,3.13
2019-03-11T00:07:02.790Z,3.30
2019-03-11T00:09:32.787Z,3.00
2019-03-11T00:12:02.730Z,3.27
2019-03-11T00:14:32.633Z,3.10
2019-03-11T00:17:02.631Z,3.27
2019-03-11T00:19:32.618Z,2.87
2019-03-11T00:22:02.627Z,3.00
2019-03-11T00:24:32.622Z,3.80
2019-03-11T00:27:02.658Z,2.90
2019-03-11T00:29:32.560Z,3.60
2019-03-11T00:32:02.517Z,3.50
2019-03-11T00:34:32.504Z,3.67
2019-03-11T00:37:02.453Z,3.80
2019-03-11T00:39:32.438Z,3.43
2019-03-11T00:42:02.404Z,3.30
2019-03-11T00:44:32.411Z,4.07
2019-03-11T00:47:02.403Z,3.70
2019-03-11T00:49:34.683Z,5.57
2019-03-11T00:52:04.445Z,4.20
2019-03-11T00:54:34.377Z,5.23
2019-03-11T00:57:04.448Z,4.10
2019-03-11T00:59:34.381Z,4.80
2019-03-11T01:02:04.713Z,5.50
2019-03-11T01:04:34.607Z,4.40
2019-03-11T01:07:04.614Z,5.57
2019-03-11T01:09:34.646Z,7.50
2019-03-11T01:12:04.552Z,5.83
2019-03-11T01:14:35.854Z,6.23
2019-03-11T01:17:06.106Z,6.70
2019-03-11T01:19:36.056Z,5.83
2019-03-11T01:22:05.967Z,6.57
2019-03-11T01:24:35.903Z,6.40
2019-03-11T01:27:05.833Z,5.23
2019-03-11T01:29:35.865Z,5.97
2019-03-11T01:32:05.985Z,6.33
2019-03-11T01:34:35.918Z,5.80
2019-03-11T01:37:05.821Z,7.00
2019-03-11T01:39:35.776Z,6.67
2019-03-11T01:42:05.763Z,6.10
2019-03-11T01:44:35.723Z,5.80
2019-03-11T01:47:05.713Z,4.87
2019-03-11T01:49:35.639Z,5.20
2019-03-11T01:52:05.165Z,5.93
2019-03-11T01:54:35.002Z,4.93
2019-03-11T01:57:05.005Z,4.03
2019-03-11T01:59:34.962Z,4.57
2019-03-11T02:02:04.961Z,3.90
2019-03-11T02:04:34.894Z,5.47
2019-03-11T02:07:06.241Z,4.40
2019-03-11T02:09:36.225Z,4.90
2019-03-11T02:12:06.151Z,4.87
2019-03-11T02:14:36.149Z,3.97
2019-03-11T02:17:06.210Z,5.30
2019-03-11T02:19:36.237Z,4.37
2019-03-11T02:22:06.216Z,4.70
2019-03-11T02:24:36.167Z,3.30
2019-03-11T02:27:06.078Z,4.90
2019-03-11T02:29:36.092Z,7.40
2019-03-11T02:32:06.178Z,4.73
2019-03-11T02:34:36.889Z,5.23
2019-03-11T02:37:06.906Z,4.70
2019-03-11T02:39:36.853Z,5.47
2019-03-11T02:42:06.792Z,4.33
2019-03-11T02:44:36.752Z,4.93
2019-03-11T02:47:06.737Z,5.20
2019-03-11T02:49:36.691Z,6.43
2019-03-11T02:52:06.596Z,4.73
2019-03-11T02:54:36.607Z,4.77
2019-03-11T02:57:06.600Z,4.70
2019-03-11T02:59:36.563Z,6.03
2019-03-11T03:02:24.372Z,4.60
2019-03-11T03:05:02.317Z,5.57
2019-03-11T03:07:32.222Z,6.30
2019-03-11T03:10:02.329Z,5.30
2019-03-11T03:12:32.387Z,5.00
2019-03-11T03:15:02.525Z,5.20
2019-03-11T03:17:32.449Z,5.70
2019-03-11T03:20:02.539Z,5.03
2019-03-11T03:22:32.598Z,4.70
2019-03-11T03:25:02.606Z,4.30
2019-03-11T03:27:32.508Z,4.90
2019-03-11T03:30:02.624Z,4.33
2019-03-11T03:32:32.538Z,3.47
2019-03-11T03:35:02.515Z,3.63
2019-03-11T03:37:32.421Z,3.30
2019-03-11T03:40:03.086Z,2.80
2019-03-11T03:42:33.131Z,3.07
2019-03-11T03:45:26.240Z,2.70
2019-03-11T03:47:56.343Z,2.70
2019-03-11T03:50:29.221Z,3.10
2019-03-11T03:52:59.121Z,2.50
2019-03-11T03:55:29.634Z,2.40
2019-03-11T03:57:59.596Z,2.90
2019-03-11T04:00:29.503Z,2.93
2019-03-11T04:02:59.510Z,2.03
2019-03-11T04:05:29.498Z,2.83
2019-03-11T04:07:59.444Z,4.13
2019-03-11T04:10:32.151Z,3.40
2019-03-11T04:13:00.959Z,3.00
2019-03-11T04:15:30.546Z,3.10
2019-03-11T04:17:59.995Z,4.17
2019-03-11T04:20:29.426Z,3.53
2019-03-11T04:22:59.351Z,4.03
2019-03-11T04:25:30.654Z,4.57
2019-03-11T04:28:00.632Z,3.67
2019-03-11T04:30:30.581Z,4.33
2019-03-11T04:33:00.641Z,4.30
2019-03-11T04:35:30.714Z,4.03
2019-03-11T04:38:00.757Z,4.70
2019-03-11T04:40:30.760Z,4.80
2019-03-11T04:43:00.680Z,4.17
2019-03-11T04:45:30.618Z,4.77
2019-03-11T04:48:00.649Z,4.87
2019-03-11T04:50:30.578Z,4.50
2019-03-11T04:53:00.586Z,5.63
2019-03-11T04:55:30.496Z,5.10
2019-03-11T04:58:00.432Z,4.90
2019-03-11T05:00:30.473Z,5.33
2019-03-11T05:03:01.481Z,5.20
2019-03-11T05:05:31.436Z,5.60
2019-03-11T05:08:01.386Z,5.30
2019-03-11T05:10:31.312Z,5.57
2019-03-11T05:13:01.278Z,5.23
2019-03-11T05:15:31.193Z,6.00
2019-03-11T05:18:01.202Z,5.50
2019-03-11T05:20:31.140Z,5.90
2019-03-11T05:23:01.177Z,5.57
2019-03-11T05:25:31.082Z,6.30
2019-03-11T05:28:01.031Z,5.70
2019-03-11T05:30:30.992Z,7.17
2019-03-11T05:33:01.026Z,6.80
2019-03-11T05:35:31.003Z,6.70
2019-03-11T05:38:00.957Z,5.93
2019-03-11T05:40:30.959Z,7.37
2019-03-11T05:43:00.887Z,7.50
2019-03-11T05:45:31.363Z,7.07
2019-03-11T05:48:01.295Z,6.50
2019-03-11T05:50:31.357Z,7.50
2019-03-11T05:53:01.320Z,6.90
2019-03-11T05:55:31.248Z,6.80
2019-03-11T05:58:01.196Z,6.83
2019-03-11T06:00:31.617Z,7.20
2019-03-11T06:03:01.657Z,6.50
2019-03-11T06:05:33.557Z,6.53
2019-03-11T06:08:03.300Z,7.30
2019-03-11T06:10:33.230Z,6.53
2019-03-11T06:13:03.186Z,6.27
2019-03-11T06:15:33.128Z,5.60
2019-03-11T06:18:03.125Z,6.27
2019-03-11T06:20:52.099Z,5.70
2019-03-11T06:23:22.092Z,5.90
2019-03-11T06:25:52.036Z,6.63
2019-03-11T06:28:21.979Z,5.23
2019-03-11T06:30:51.962Z,6.43
2019-03-11T06:33:21.910Z,5.87
2019-03-11T06:35:51.827Z,5.70
2019-03-11T06:38:21.815Z,5.37
2019-03-11T06:40:51.750Z,4.80
2019-03-11T06:43:21.729Z,5.53
2019-03-11T06:45:51.600Z,5.63
2019-03-11T06:48:21.154Z,5.67
2019-03-11T06:50:51.026Z,5.07
2019-03-11T06:53:20.949Z,5.17
2019-03-11T06:55:50.868Z,4.67
2019-03-11T06:58:20.818Z,4.40
2019-03-11T07:00:50.749Z,4.50
2019-03-11T07:03:20.850Z,4.70
2019-03-11T07:05:50.853Z,4.53
2019-03-11T07:08:20.791Z,4.10
2019-03-11T07:10:50.741Z,4.80
2019-03-11T07:13:20.686Z,3.77
2019-03-11T07:15:50.650Z,3.87
2019-03-11T07:18:20.637Z,4.03
2019-03-11T07:20:50.564Z,3.40
2019-03-11T07:23:20.464Z,4.07
2019-03-11T07:25:50.411Z,3.43
2019-03-11T07:28:20.354Z,4.20
2019-03-11T07:30:50.313Z,4.17
2019-03-11T07:33:20.229Z,3.77
2019-03-11T07:35:50.198Z,3.60
2019-03-11T07:38:19.810Z,3.93
2019-03-11T07:40:49.744Z,4.13
2019-03-11T07:43:19.746Z,4.27
2019-03-11T07:45:49.705Z,4.67
2019-03-11T07:48:19.770Z,5.03
2019-03-11T07:50:49.795Z,3.70
2019-03-11T07:53:19.714Z,4.40
2019-03-11T07:55:49.668Z,4.23
2019-03-11T07:58:20.044Z,3.80
2019-03-11T08:00:54.181Z,4.10
2019-03-11T08:03:23.024Z,4.20
2019-03-11T08:05:52.473Z,5.17
2019-03-11T08:08:21.882Z,5.07
2019-03-11T08:10:51.366Z,6.47
2019-03-11T08:13:20.775Z,5.40
2019-03-11T08:15:50.614Z,4.93
2019-03-11T08:18:20.529Z,5.33
2019-03-11T08:20:50.618Z,5.10
2019-03-11T08:23:20.538Z,5.00
2019-03-11T08:25:50.493Z,6.20
2019-03-11T08:28:20.417Z,5.60
2019-03-11T08:30:50.392Z,5.50
2019-03-11T08:33:20.285Z,5.57
2019-03-11T08:35:50.215Z,5.50
2019-03-11T08:38:20.212Z,6.63
2019-03-11T08:40:50.157Z,5.80
2019-03-11T08:43:21.846Z,5.60
2019-03-11T08:45:51.297Z,5.43
2019-03-11T08:48:20.830Z,6.60
2019-03-11T08:50:50.269Z,6.30
2019-03-11T08:53:19.720Z,5.80
2019-03-11T08:55:49.173Z,5.97
2019-03-11T08:58:19.082Z,5.87
2019-03-11T09:00:49.024Z,5.90
2019-03-11T09:03:19.021Z,5.80
2019-03-11T09:05:48.969Z,5.20
2019-03-11T09:08:18.875Z,5.67
2019-03-11T09:10:48.830Z,5.33
2019-03-11T09:13:18.753Z,5.50
2019-03-11T09:15:49.750Z,5.20
2019-03-11T09:18:19.638Z,5.30
2019-03-11T09:20:49.637Z,4.90
2019-03-11T09:23:19.566Z,4.63
2019-03-11T09:25:49.506Z,4.87
2019-03-11T09:28:19.451Z,4.87
2019-03-11T09:30:49.433Z,5.60
2019-03-11T09:33:19.336Z,5.00
2019-03-11T09:35:49.296Z,5.10
2019-03-11T09:38:19.281Z,5.27
2019-03-11T09:40:49.233Z,5.40
2019-03-11T09:43:19.300Z,5.00
2019-03-11T09:45:49.258Z,4.40
2019-03-11T09:48:19.173Z,4.57
2019-03-11T09:50:49.127Z,5.40
2019-03-11T09:53:19.044Z,4.70
2019-03-11T09:55:48.992Z,4.43
2019-03-11T09:58:19.005Z,4.80
2019-03-11T10:00:48.913Z,4.27
2019-03-11T10:03:18.918Z,4.50
2019-03-11T10:05:48.811Z,4.70
2019-03-11T10:08:19.827Z,4.07
2019-03-11T10:10:50.436Z,3.70
2019-03-11T10:13:20.490Z,3.43
2019-03-11T10:15:50.428Z,3.27
2019-03-11T10:18:20.381Z,3.03
2019-03-11T10:20:50.370Z,2.20
2019-03-11T10:23:28.434Z,2.73
2019-03-11T10:25:51.867Z,2.53
2019-03-11T10:28:21.802Z,1.97
2019-03-11T10:30:51.715Z,2.20
2019-03-11T10:33:21.738Z,2.50
2019-03-11T10:35:51.664Z,2.43
2019-03-11T10:38:21.619Z,2.13
2019-03-11T10:40:51.541Z,2.40
2019-03-11T10:43:21.475Z,2.47
2019-03-11T10:45:51.536Z,2.23
2019-03-11T10:48:21.403Z,2.10
2019-03-11T10:50:51.504Z,2.40
2019-03-11T10:53:21.558Z,2.10
2019-03-11T10:55:51.469Z,2.27
2019-03-11T10:58:21.430Z,2.30
2019-03-11T11:00:51.495Z,2.13
2019-03-11T11:03:21.429Z,2.13
2019-03-11T11:05:51.426Z,2.40
2019-03-11T11:08:21.383Z,2.40
2019-03-11T11:10:51.305Z,2.23
2019-03-11T11:13:21.273Z,2.50
2019-03-11T11:15:51.192Z,2.30
2019-03-11T11:18:21.288Z,2.90
2019-03-11T11:20:51.213Z,2.30
2019-03-11T11:23:21.136Z,2.53
2019-03-11T11:25:51.142Z,2.20
2019-03-11T11:28:21.102Z,2.20
2019-03-11T11:30:51.000Z,2.30
2019-03-11T11:33:20.963Z,2.60
2019-03-11T11:35:50.953Z,2.10
2019-03-11T11:38:21.504Z,2.97
2019-03-11T11:40:51.457Z,2.30
2019-03-11T11:43:21.382Z,2.63
2019-03-11T11:45:51.309Z,2.60
2019-03-11T11:48:21.240Z,2.13
2019-03-11T11:50:51.244Z,2.40
2019-03-11T11:53:21.253Z,2.53
2019-03-11T11:55:57.655Z,2.87
2019-03-11T11:58:22.898Z,2.70
2019-03-11T12:00:52.897Z,2.50
2019-03-11T12:03:22.857Z,2.20
2019-03-11T12:05:52.866Z,2.63
2019-03-11T12:08:22.818Z,2.40
2019-03-11T12:10:52.760Z,2.17
2019-03-11T12:13:22.734Z,1.80
2019-03-11T12:15:52.757Z,2.30
2019-03-11T12:18:22.842Z,2.30
2019-03-11T12:20:52.770Z,2.10
2019-03-11T12:23:22.780Z,3.00
2019-03-11T12:25:52.696Z,2.33
2019-03-11T12:28:22.682Z,1.97
2019-03-11T12:30:52.707Z,2.33
2019-03-11T12:33:22.628Z,2.23
2019-03-11T12:35:52.569Z,2.27
2019-03-11T12:38:22.482Z,2.57
2019-03-11T12:40:52.446Z,2.40
2019-03-11T12:43:22.367Z,2.20
2019-03-11T12:45:52.306Z,2.57
2019-03-11T12:48:22.299Z,2.00
2019-03-11T12:50:52.226Z,2.60
2019-03-11T12:53:22.301Z,2.30
2019-03-11T12:55:52.320Z,2.30
2019-03-11T12:58:23.855Z,2.83
2019-03-11T13:00:53.806Z,2.80
2019-03-11T13:03:23.722Z,2.40
2019-03-11T13:05:53.658Z,2.70
2019-03-11T13:08:23.572Z,2.80
2019-03-11T13:10:53.545Z,3.30
2019-03-11T13:13:23.473Z,2.80
2019-03-11T13:15:53.421Z,3.03
2019-03-11T13:18:38.097Z,2.80
2019-03-11T13:21:26.176Z,3.10
2019-03-11T13:23:56.098Z,2.70
2019-03-11T13:26:26.015Z,2.63
2019-03-11T13:28:55.946Z,2.80
2019-03-11T13:31:26.131Z,2.43
2019-03-11T13:33:56.069Z,2.37
2019-03-11T13:36:26.015Z,2.20
2019-03-11T13:38:55.935Z,2.10
2019-03-11T13:41:25.906Z,1.80
2019-03-11T13:43:55.377Z,2.00
2019-03-11T13:46:25.283Z,2.13
2019-03-11T13:48:55.198Z,1.80
2019-03-11T13:51:25.173Z,2.00
2019-03-11T13:53:55.190Z,1.70
2019-03-11T13:56:25.196Z,1.50
2019-03-11T13:58:55.137Z,1.87
2019-03-11T14:01:25.161Z,2.80
2019-03-11T14:03:55.114Z,2.10
2019-03-11T14:06:25.133Z,2.70
2019-03-11T14:08:55.061Z,3.00
2019-03-11T14:11:25.018Z,2.30
2019-03-11T14:13:55.085Z,3.60
2019-03-11T14:16:25.106Z,3.53
2019-03-11T14:18:55.036Z,3.40
2019-03-11T14:21:25.923Z,4.27
2019-03-11T14:23:56.234Z,4.50
2019-03-11T14:26:26.349Z,4.50
2019-03-11T14:28:56.249Z,4.20
2019-03-11T14:31:26.294Z,4.63
2019-03-11T14:33:56.287Z,4.87
2019-03-11T14:36:26.270Z,5.03
2019-03-11T14:38:56.246Z,4.80
2019-03-11T14:41:26.324Z,5.87
2019-03-11T14:43:56.472Z,6.07
2019-03-11T14:46:26.403Z,5.50
2019-03-11T14:48:56.404Z,5.43
2019-03-11T14:51:26.405Z,4.63
2019-03-11T14:53:56.490Z,5.30
2019-03-11T14:56:26.463Z,4.10
2019-03-11T14:58:56.460Z,3.60
2019-03-11T15:01:26.427Z,4.90
2019-03-11T15:03:56.392Z,4.57
2019-03-11T15:06:26.426Z,3.10
2019-03-11T15:08:56.826Z,3.53
2019-03-11T15:11:26.926Z,3.00
2019-03-11T15:13:56.933Z,2.53
2019-03-11T15:16:29.841Z,2.30
2019-03-11T15:19:00.785Z,2.37
2019-03-11T15:21:30.849Z,2.13
2019-03-11T15:24:01.020Z,2.20
2019-03-11T15:26:30.937Z,2.40
2019-03-11T15:29:00.954Z,1.70
2019-03-11T15:31:30.893Z,1.67
2019-03-11T15:34:00.910Z,2.30
2019-03-11T15:36:33.696Z,2.13
2019-03-11T15:39:02.453Z,2.10
2019-03-11T15:41:32.380Z,1.80
2019-03-11T15:44:02.392Z,1.60
2019-03-11T15:46:39.260Z,1.93
2019-03-11T15:49:04.137Z,2.03
2019-03-11T15:51:36.849Z,2.20
2019-03-11T15:54:05.676Z,1.70
2019-03-11T15:56:35.730Z,2.00
2019-03-11T15:59:05.694Z,2.20
2019-03-11T16:01:35.593Z,2.27
2019-03-11T16:04:05.621Z,2.50
2019-03-11T16:06:35.517Z,2.30
2019-03-11T16:09:07.190Z,2.40
2019-03-11T16:11:37.265Z,2.93
2019-03-11T16:14:07.285Z,2.93
2019-03-11T16:16:38.262Z,1.93
2019-03-11T16:19:08.259Z,2.20
2019-03-11T16:21:38.186Z,2.53
2019-03-11T16:24:08.313Z,2.70
2019-03-11T16:26:38.240Z,2.60
2019-03-11T16:29:08.426Z,2.47
2019-03-11T16:31:38.427Z,2.20
2019-03-11T16:34:08.437Z,1.80
2019-03-11T16:36:38.789Z,2.40
2019-03-11T16:39:09.536Z,1.60
2019-03-11T16:41:39.569Z,2.00
2019-03-11T16:44:09.510Z,2.10
2019-03-11T16:46:39.493Z,2.20
2019-03-11T16:49:16.908Z,1.83
2019-03-11T16:51:48.937Z,1.80
2019-03-11T16:54:19.001Z,1.90
2019-03-11T16:56:48.901Z,1.70
2019-03-11T16:59:18.836Z,1.73
2019-03-11T17:01:48.842Z,2.00
2019-03-11T17:04:20.164Z,1.70
2019-03-11T17:06:50.534Z,2.27
2019-03-11T17:09:20.958Z,1.57
2019-03-11T17:11:50.953Z,2.07
2019-03-11T17:14:21.151Z,2.23
2019-03-11T17:16:51.090Z,2.00
2019-03-11T17:19:21.029Z,2.83
2019-03-11T17:21:51.028Z,2.17
2019-03-11T17:24:21.032Z,2.50
2019-03-11T17:26:51.347Z,2.07
2019-03-11T17:29:21.450Z,1.97
2019-03-11T17:32:03.948Z,1.90
2019-03-11T17:34:34.065Z,2.10
2019-03-11T17:37:04.073Z,1.97
2019-03-11T17:39:34.042Z,1.97
2019-03-11T17:42:04.026Z,1.70
2019-03-11T17:44:33.997Z,1.97
2019-03-11T17:47:04.031Z,1.83
2019-03-11T17:49:33.922Z,1.73
2019-03-11T17:52:03.940Z,2.03
2019-03-11T17:54:33.881Z,1.83
2019-03-11T17:57:04.069Z,1.30
2019-03-11T17:59:34.556Z,1.40
2019-03-11T18:02:04.806Z,1.70
2019-03-11T18:04:34.956Z,2.00
2019-03-11T18:07:04.953Z,1.30
2019-03-11T18:09:34.967Z,1.50
2019-03-11T18:12:05.155Z,1.80
2019-03-11T18:14:35.256Z,2.00
2019-03-11T18:17:06.464Z,1.43
2019-03-11T18:19:36.964Z,1.53
2019-03-11T18:22:07.247Z,1.40
2019-03-11T18:24:37.667Z,2.10
2019-03-11T18:27:07.746Z,1.50
2019-03-11T18:29:37.680Z,1.10
2019-03-11T18:32:07.629Z,1.00
2019-03-11T18:34:37.651Z,1.50
2019-03-11T18:37:07.705Z,1.17
2019-03-11T18:39:37.770Z,1.60
2019-03-11T18:42:07.800Z,1.30
2019-03-11T18:44:40.191Z,1.50
2019-03-11T18:47:10.202Z,1.60
2019-03-11T18:49:40.223Z,1.50
2019-03-11T18:52:10.231Z,1.83
2019-03-11T18:54:40.458Z,1.80
2019-03-11T18:57:10.492Z,1.63
2019-03-11T18:59:40.446Z,1.90
2019-03-11T19:02:10.413Z,2.07
2019-03-11T19:04:40.359Z,2.20
2019-03-11T19:07:10.335Z,2.40
2019-03-11T19:09:40.271Z,2.37
2019-03-11T19:12:10.300Z,2.90
2019-03-11T19:14:40.249Z,3.57
2019-03-11T19:17:10.319Z,3.67
2019-03-11T19:19:45.977Z,3.60
2019-03-11T19:22:12.534Z,3.63
2019-03-11T19:24:42.433Z,4.53
2019-03-11T19:27:12.421Z,4.17
2019-03-11T19:29:42.394Z,4.97
2019-03-11T19:32:12.466Z,4.23
2019-03-11T19:34:42.491Z,4.53
2019-03-11T19:37:13.899Z,4.83
2019-03-11T19:39:43.916Z,5.70
2019-03-11T19:42:13.916Z,4.37
2019-03-11T19:44:43.794Z,4.27
2019-03-11T19:47:13.854Z,4.47
2019-03-11T19:49:43.769Z,4.03
2019-03-11T19:52:13.857Z,3.80
2019-03-11T19:54:44.069Z,4.07
2019-03-11T19:57:15.129Z,4.00
2019-03-11T19:59:45.129Z,4.30
2019-03-11T20:02:15.131Z,5.10
2019-03-11T20:04:45.079Z,5.03
2019-03-11T20:07:15.177Z,5.10
2019-03-11T20:09:45.628Z,5.17
2019-03-11T20:12:15.961Z,4.67
2019-03-11T20:14:45.988Z,4.90
2019-03-11T20:17:17.505Z,5.30
2019-03-11T20:19:49.981Z,5.17
2019-03-11T20:22:20.010Z,5.17
2019-03-11T20:24:51.000Z,5.13
2019-03-11T20:27:21.030Z,4.80
2019-03-11T20:29:50.923Z,5.10
2019-03-11T20:32:20.874Z,4.97
2019-03-11T20:34:50.764Z,4.80
2019-03-11T20:37:20.728Z,6.57
2019-03-11T20:39:50.740Z,6.00
2019-03-11T20:42:20.785Z,5.77
2019-03-11T20:44:50.823Z,6.50
2019-03-11T20:47:20.735Z,7.63
2019-03-11T20:49:50.689Z,7.33
2019-03-11T20:52:20.607Z,7.63
2019-03-11T20:54:50.679Z,8.20
2019-03-11T20:57:20.596Z,8.53
2019-03-11T20:59:50.514Z,7.77
2019-03-11T21:02:20.464Z,7.37
2019-03-11T21:04:50.492Z,5.93
2019-03-11T21:07:20.405Z,6.47
2019-03-11T21:09:50.306Z,5.13
2019-03-11T21:12:20.222Z,5.50
2019-03-11T21:14:50.375Z,4.83
2019-03-11T21:17:25.589Z,5.40
2019-03-11T21:19:51.897Z,4.90
2019-03-11T21:22:21.834Z,4.60
2019-03-11T21:24:59.528Z,4.67
2019-03-11T21:27:23.428Z,4.30
2019-03-11T21:29:53.475Z,3.70
2019-03-11T21:32:23.520Z,3.70
2019-03-11T21:34:54.269Z,3.40
2019-03-11T21:37:24.263Z,2.87
2019-03-11T21:39:54.317Z,3.63
2019-03-11T21:42:24.433Z,3.10
2019-03-11T21:44:54.727Z,2.73
2019-03-11T21:47:24.685Z,3.00
2019-03-11T21:49:54.614Z,2.73
2019-03-11T21:52:25.345Z,2.90
2019-03-11T21:54:55.821Z,3.20
2019-03-11T21:57:25.776Z,3.03
2019-03-11T21:59:55.703Z,3.40
2019-03-11T22:02:25.316Z,3.17
2019-03-11T22:04:55.250Z,3.60
2019-03-11T22:07:25.255Z,3.30
2019-03-11T22:09:55.202Z,2.87
2019-03-11T22:12:25.115Z,3.60
2019-03-11T22:14:55.058Z,3.90
2019-03-11T22:17:24.970Z,3.10
2019-03-11T22:19:54.909Z,2.50
2019-03-11T22:22:24.934Z,2.73
2019-03-11T22:24:54.932Z,3.90
2019-03-11T22:27:24.884Z,2.50
2019-03-11T22:29:54.834Z,2.17
2019-03-11T22:32:24.740Z,2.27
2019-03-11T22:34:54.826Z,2.43
2019-03-11T22:37:24.740Z,2.70
2019-03-11T22:39:54.669Z,2.50
2019-03-11T22:42:24.588Z,3.00
2019-03-11T22:44:54.512Z,2.83
2019-03-11T22:47:24.424Z,3.33
2019-03-11T22:49:54.359Z,3.37
2019-03-11T22:52:24.273Z,3.63
2019-03-11T22:54:54.208Z,4.07
2019-03-11T22:57:24.138Z,3.73
2019-03-11T22:59:54.070Z,3.80
2019-03-11T23:02:24.393Z,3.63
2019-03-11T23:04:54.320Z,3.60
2019-03-11T23:07:24.382Z,3.50
2019-03-11T23:09:54.332Z,3.00
2019-03-11T23:12:24.485Z,3.00
2019-03-11T23:14:54.466Z,3.27
2019-03-11T23:17:24.341Z,3.53
2019-03-11T23:19:54.262Z,3.40
2019-03-11T23:22:24.214Z,3.50
2019-03-11T23:24:54.132Z,3.33
2019-03-11T23:27:24.147Z,2.87
2019-03-11T23:29:54.127Z,3.40
2019-03-11T23:32:24.126Z,2.93
2019-03-11T23:34:54.134Z,3.27
2019-03-11T23:37:24.083Z,2.80
2019-03-11T23:39:53.991Z,3.30
2019-03-11T23:42:23.970Z,2.80
2019-03-11T23:44:53.961Z,3.00
2019-03-11T23:47:23.900Z,2.70
2019-03-11T23:49:53.822Z,2.87
2019-03-11T23:52:23.749Z,3.50
2019-03-11T23:54:53.670Z,2.70
2019-03-11T23:57:23.628Z,3.67
2019-03-11T23:59:53.600Z,3.00
